sensor_id;sensor_type;location;lat;lon;timestamp;P1;durP1;ratioP1;P2;durP2;ratioP2
5418;SDS011;2732;52.092;11.556;2023-03-01T00:04:48;4.53;;;3.50;;
5418;SDS011;2732;52.092;11.556;2023-03-01T00:09:49;7.60;;;4.07;;
5418;SDS011;2732;52.092;11.556;2023-03-01T00:14:49;4.17;;;3.60;;
5418;SDS011;2732;52.092;11.556;2023-03-01T00:19:50;7.47;;;4.43;;
5418;SDS011;2732;52.092;11.556;2023-03-01T00:24:50;3.73;;;3.40;;
5418;SDS011;2732;52.092;11.556;2023-03-01T00:29:51;4.87;;;3.30;;
5418;SDS011;2732;52.092;11.556;2023-03-01T00:34:52;6.73;;;4.07;;
5418;SDS011;2732;52.092;11.556;2023-03-01T00:39:56;6.93;;;4.07;;
5418;SDS011;2732;52.092;11.556;2023-03-01T00:44:56;5.33;;;3.80;;
5418;SDS011;2732;52.092;11.556;2023-03-01T00:49:57;7.23;;;4.00;;
5418;SDS011;2732;52.092;11.556;2023-03-01T00:54:57;6.87;;;3.57;;
5418;SDS011;2732;52.092;11.556;2023-03-01T00:59:58;6.87;;;4.20;;
5418;SDS011;2732;52.092;11.556;2023-03-01T01:04:59;6.10;;;3.87;;
5418;SDS011;2732;52.092;11.556;2023-03-01T01:10:00;5.17;;;3.17;;
5418;SDS011;2732;52.092;11.556;2023-03-01T01:15:01;10.43;;;3.90;;
5418;SDS011;2732;52.092;11.556;2023-03-01T01:20:04;4.70;;;3.37;;
5418;SDS011;2732;52.092;11.556;2023-03-01T01:25:05;8.50;;;3.63;;
5418;SDS011;2732;52.092;11.556;2023-03-01T01:30:07;3.60;;;2.97;;
5418;SDS011;2732;52.092;11.556;2023-03-01T01:35:08;9.43;;;3.93;;
5418;SDS011;2732;52.092;11.556;2023-03-01T01:40:09;4.20;;;3.10;;
5418;SDS011;2732;52.092;11.556;2023-03-01T01:45:30;5.50;;;4.00;;
5418;SDS011;2732;52.092;11.556;2023-03-01T01:50:34;4.40;;;2.70;;
5418;SDS011;2732;52.092;11.556;2023-03-01T01:55:40;4.20;;;3.80;;
5418;SDS011;2732;52.092;11.556;2023-03-01T02:00:52;11.13;;;3.70;;
5418;SDS011;2732;52.092;11.556;2023-03-01T02:06:06;5.90;;;3.90;;
5418;SDS011;2732;52.092;11.556;2023-03-01T02:11:24;10.50;;;3.57;;
5418;SDS011;2732;52.092;11.556;2023-03-01T02:16:26;17.97;;;4.17;;
5418;SDS011;2732;52.092;11.556;2023-03-01T02:27:07;6.10;;;3.67;;
5418;SDS011;2732;52.092;11.556;2023-03-01T02:32:08;5.10;;;3.87;;
5418;SDS011;2732;52.092;11.556;2023-03-01T02:37:13;7.40;;;4.07;;
5418;SDS011;2732;52.092;11.556;2023-03-01T02:42:17;7.37;;;5.00;;
5418;SDS011;2732;52.092;11.556;2023-03-01T02:47:27;3.53;;;2.70;;
5418;SDS011;2732;52.092;11.556;2023-03-01T02:57:48;5.47;;;3.13;;
5418;SDS011;2732;52.092;11.556;2023-03-01T03:02:52;5.47;;;4.03;;
5418;SDS011;2732;52.092;11.556;2023-03-01T03:07:54;8.43;;;3.60;;
5418;SDS011;2732;52.092;11.556;2023-03-01T03:13:00;7.10;;;3.23;;
5418;SDS011;2732;52.092;11.556;2023-03-01T03:18:12;11.90;;;4.90;;
5418;SDS011;2732;52.092;11.556;2023-03-01T03:23:19;5.57;;;3.60;;
5418;SDS011;2732;52.092;11.556;2023-03-01T03:28:21;24.17;;;6.20;;
5418;SDS011;2732;52.092;11.556;2023-03-01T03:33:23;7.50;;;4.47;;
5418;SDS011;2732;52.092;11.556;2023-03-01T03:38:26;10.83;;;5.40;;
5418;SDS011;2732;52.092;11.556;2023-03-01T03:43:26;5.03;;;4.47;;
5418;SDS011;2732;52.092;11.556;2023-03-01T03:48:27;10.43;;;3.83;;
5418;SDS011;2732;52.092;11.556;2023-03-01T03:53:28;4.50;;;3.40;;
5418;SDS011;2732;52.092;11.556;2023-03-01T03:58:29;5.17;;;3.67;;
5418;SDS011;2732;52.092;11.556;2023-03-01T04:03:30;5.70;;;3.60;;
5418;SDS011;2732;52.092;11.556;2023-03-01T04:08:33;7.33;;;3.57;;
5418;SDS011;2732;52.092;11.556;2023-03-01T04:13:33;3.87;;;2.83;;
5418;SDS011;2732;52.092;11.556;2023-03-01T04:18:34;5.77;;;3.30;;
5418;SDS011;2732;52.092;11.556;2023-03-01T04:23:34;3.53;;;3.13;;
5418;SDS011;2732;52.092;11.556;2023-03-01T04:28:37;8.23;;;3.47;;
5418;SDS011;2732;52.092;11.556;2023-03-01T04:33:46;9.40;;;3.60;;
5418;SDS011;2732;52.092;11.556;2023-03-01T04:38:52;3.90;;;2.53;;
5418;SDS011;2732;52.092;11.556;2023-03-01T04:43:54;4.07;;;2.87;;
5418;SDS011;2732;52.092;11.556;2023-03-01T04:48:55;5.90;;;3.53;;
5418;SDS011;2732;52.092;11.556;2023-03-01T04:53:55;2.63;;;2.40;;
5418;SDS011;2732;52.092;11.556;2023-03-01T04:58:56;3.77;;;3.13;;
5418;SDS011;2732;52.092;11.556;2023-03-01T05:03:56;4.17;;;3.00;;
5418;SDS011;2732;52.092;11.556;2023-03-01T05:09:03;5.07;;;3.00;;
5418;SDS011;2732;52.092;11.556;2023-03-01T05:14:05;5.67;;;3.53;;
5418;SDS011;2732;52.092;11.556;2023-03-01T05:19:07;6.30;;;3.33;;
5418;SDS011;2732;52.092;11.556;2023-03-01T05:24:15;4.13;;;3.37;;
5418;SDS011;2732;52.092;11.556;2023-03-01T05:29:15;13.80;;;3.87;;
5418;SDS011;2732;52.092;11.556;2023-03-01T05:34:16;5.00;;;3.70;;
5418;SDS011;2732;52.092;11.556;2023-03-01T05:39:17;11.13;;;2.90;;
5418;SDS011;2732;52.092;11.556;2023-03-01T05:44:18;6.50;;;4.20;;
5418;SDS011;2732;52.092;11.556;2023-03-01T05:49:18;9.40;;;3.37;;
5418;SDS011;2732;52.092;11.556;2023-03-01T05:54:20;6.17;;;3.20;;
5418;SDS011;2732;52.092;11.556;2023-03-01T05:59:23;6.43;;;2.90;;
5418;SDS011;2732;52.092;11.556;2023-03-01T06:04:24;10.07;;;4.23;;
5418;SDS011;2732;52.092;11.556;2023-03-01T06:09:25;5.70;;;3.30;;
5418;SDS011;2732;52.092;11.556;2023-03-01T06:14:26;8.00;;;3.77;;
5418;SDS011;2732;52.092;11.556;2023-03-01T06:19:27;6.90;;;3.90;;
5418;SDS011;2732;52.092;11.556;2023-03-01T06:24:27;8.97;;;3.20;;
5418;SDS011;2732;52.092;11.556;2023-03-01T06:29:28;6.93;;;3.97;;
5418;SDS011;2732;52.092;11.556;2023-03-01T06:34:30;11.00;;;3.83;;
5418;SDS011;2732;52.092;11.556;2023-03-01T06:39:32;4.80;;;3.20;;
5418;SDS011;2732;52.092;11.556;2023-03-01T06:44:33;7.90;;;4.03;;
5418;SDS011;2732;52.092;11.556;2023-03-01T06:49:33;8.27;;;4.73;;
5418;SDS011;2732;52.092;11.556;2023-03-01T06:54:34;8.67;;;5.07;;
5418;SDS011;2732;52.092;11.556;2023-03-01T06:59:35;4.30;;;3.43;;
5418;SDS011;2732;52.092;11.556;2023-03-01T07:04:35;9.50;;;4.50;;
5418;SDS011;2732;52.092;11.556;2023-03-01T07:09:36;7.20;;;4.20;;
5418;SDS011;2732;52.092;11.556;2023-03-01T07:14:37;12.93;;;7.03;;
5418;SDS011;2732;52.092;11.556;2023-03-01T07:19:37;6.17;;;4.73;;
5418;SDS011;2732;52.092;11.556;2023-03-01T07:24:38;12.07;;;5.13;;
5418;SDS011;2732;52.092;11.556;2023-03-01T07:29:39;9.00;;;4.30;;
5418;SDS011;2732;52.092;11.556;2023-03-01T07:34:39;9.70;;;5.60;;
5418;SDS011;2732;52.092;11.556;2023-03-01T07:39:40;12.13;;;6.67;;
5418;SDS011;2732;52.092;11.556;2023-03-01T07:44:41;9.90;;;5.40;;
5418;SDS011;2732;52.092;11.556;2023-03-01T07:49:41;9.67;;;5.67;;
5418;SDS011;2732;52.092;11.556;2023-03-01T07:54:46;9.10;;;5.37;;
5418;SDS011;2732;52.092;11.556;2023-03-01T07:59:47;7.37;;;5.60;;
5418;SDS011;2732;52.092;11.556;2023-03-01T08:04:47;17.17;;;5.77;;
5418;SDS011;2732;52.092;11.556;2023-03-01T08:09:48;9.83;;;6.00;;
5418;SDS011;2732;52.092;11.556;2023-03-01T08:14:48;14.80;;;6.27;;
5418;SDS011;2732;52.092;11.556;2023-03-01T08:19:49;8.60;;;5.47;;
5418;SDS011;2732;52.092;11.556;2023-03-01T08:24:50;11.13;;;6.57;;
5418;SDS011;2732;52.092;11.556;2023-03-01T08:29:50;10.33;;;6.10;;
5418;SDS011;2732;52.092;11.556;2023-03-01T08:34:51;17.60;;;6.50;;
5418;SDS011;2732;52.092;11.556;2023-03-01T08:39:52;13.97;;;6.40;;
5418;SDS011;2732;52.092;11.556;2023-03-01T08:44:52;7.13;;;5.13;;
5418;SDS011;2732;52.092;11.556;2023-03-01T08:49:53;8.80;;;5.90;;
5418;SDS011;2732;52.092;11.556;2023-03-01T08:54:53;11.87;;;6.27;;
5418;SDS011;2732;52.092;11.556;2023-03-01T08:59:54;11.50;;;5.97;;
5418;SDS011;2732;52.092;11.556;2023-03-01T09:04:56;15.13;;;7.10;;
5418;SDS011;2732;52.092;11.556;2023-03-01T09:09:56;15.97;;;5.73;;
5418;SDS011;2732;52.092;11.556;2023-03-01T09:14:57;10.30;;;5.80;;
5418;SDS011;2732;52.092;11.556;2023-03-01T09:19:57;10.13;;;5.20;;
5418;SDS011;2732;52.092;11.556;2023-03-01T09:25:00;14.13;;;4.93;;
5418;SDS011;2732;52.092;11.556;2023-03-01T09:30:01;12.97;;;5.30;;
5418;SDS011;2732;52.092;11.556;2023-03-01T09:35:06;6.13;;;4.27;;
5418;SDS011;2732;52.092;11.556;2023-03-01T09:40:08;9.07;;;4.73;;
5418;SDS011;2732;52.092;11.556;2023-03-01T09:45:23;7.03;;;4.37;;
5418;SDS011;2732;52.092;11.556;2023-03-01T09:50:33;8.17;;;4.30;;
5418;SDS011;2732;52.092;11.556;2023-03-01T09:55:42;14.00;;;4.97;;
5418;SDS011;2732;52.092;11.556;2023-03-01T10:00:54;5.23;;;3.90;;
5418;SDS011;2732;52.092;11.556;2023-03-01T10:06:01;11.73;;;4.30;;
5418;SDS011;2732;52.092;11.556;2023-03-01T10:11:21;6.27;;;4.03;;
5418;SDS011;2732;52.092;11.556;2023-03-01T10:16:37;7.00;;;3.67;;
5418;SDS011;2732;52.092;11.556;2023-03-01T10:21:53;3.83;;;3.43;;
5418;SDS011;2732;52.092;11.556;2023-03-01T10:27:17;5.63;;;3.73;;
5418;SDS011;2732;52.092;11.556;2023-03-01T10:32:29;9.37;;;5.13;;
5418;SDS011;2732;52.092;11.556;2023-03-01T10:37:30;6.83;;;4.13;;
5418;SDS011;2732;52.092;11.556;2023-03-01T10:42:32;9.37;;;3.43;;
5418;SDS011;2732;52.092;11.556;2023-03-01T10:47:47;5.97;;;4.03;;
5418;SDS011;2732;52.092;11.556;2023-03-01T10:53:38;3.80;;;3.10;;
5418;SDS011;2732;52.092;11.556;2023-03-01T10:59:01;5.60;;;3.87;;
5418;SDS011;2732;52.092;11.556;2023-03-01T11:04:26;3.67;;;3.03;;
5418;SDS011;2732;52.092;11.556;2023-03-01T11:09:30;6.00;;;4.00;;
5418;SDS011;2732;52.092;11.556;2023-03-01T11:14:38;5.97;;;4.50;;
5418;SDS011;2732;52.092;11.556;2023-03-01T11:20:02;4.83;;;3.80;;
5418;SDS011;2732;52.092;11.556;2023-03-01T11:25:14;7.10;;;2.70;;
5418;SDS011;2732;52.092;11.556;2023-03-01T11:30:30;5.40;;;3.80;;
5418;SDS011;2732;52.092;11.556;2023-03-01T11:41:34;6.43;;;4.17;;
5418;SDS011;2732;52.092;11.556;2023-03-01T11:46:57;6.67;;;4.37;;
5418;SDS011;2732;52.092;11.556;2023-03-01T11:58:37;5.87;;;4.00;;
5418;SDS011;2732;52.092;11.556;2023-03-01T12:15:11;4.80;;;4.23;;
5418;SDS011;2732;52.092;11.556;2023-03-01T12:20:40;6.53;;;4.20;;
5418;SDS011;2732;52.092;11.556;2023-03-01T12:31:47;6.53;;;3.17;;
5418;SDS011;2732;52.092;11.556;2023-03-01T12:37:29;4.40;;;2.80;;
5418;SDS011;2732;52.092;11.556;2023-03-01T12:54:11;8.43;;;3.73;;
5418;SDS011;2732;52.092;11.556;2023-03-01T12:59:18;4.07;;;3.23;;
5418;SDS011;2732;52.092;11.556;2023-03-01T13:10:34;4.10;;;3.07;;
5418;SDS011;2732;52.092;11.556;2023-03-01T13:15:50;5.83;;;3.27;;
5418;SDS011;2732;52.092;11.556;2023-03-01T13:20:52;5.23;;;3.27;;
5418;SDS011;2732;52.092;11.556;2023-03-01T13:30:58;3.43;;;3.00;;
5418;SDS011;2732;52.092;11.556;2023-03-01T13:36:01;7.13;;;3.57;;
5418;SDS011;2732;52.092;11.556;2023-03-01T13:41:02;6.10;;;3.37;;
5418;SDS011;2732;52.092;11.556;2023-03-01T13:46:21;4.77;;;2.37;;
5418;SDS011;2732;52.092;11.556;2023-03-01T13:51:26;4.93;;;2.87;;
5418;SDS011;2732;52.092;11.556;2023-03-01T13:56:28;3.50;;;2.83;;
5418;SDS011;2732;52.092;11.556;2023-03-01T14:01:37;3.03;;;2.77;;
5418;SDS011;2732;52.092;11.556;2023-03-01T14:06:37;3.03;;;2.37;;
5418;SDS011;2732;52.092;11.556;2023-03-01T14:16:49;3.30;;;3.00;;
5418;SDS011;2732;52.092;11.556;2023-03-01T14:22:32;5.07;;;3.33;;
5418;SDS011;2732;52.092;11.556;2023-03-01T14:27:38;4.37;;;2.93;;
5418;SDS011;2732;52.092;11.556;2023-03-01T14:32:41;3.80;;;3.20;;
5418;SDS011;2732;52.092;11.556;2023-03-01T14:37:42;4.17;;;3.60;;
5418;SDS011;2732;52.092;11.556;2023-03-01T14:42:43;3.33;;;2.40;;
5418;SDS011;2732;52.092;11.556;2023-03-01T14:47:46;3.47;;;2.87;;
5418;SDS011;2732;52.092;11.556;2023-03-01T14:52:48;5.03;;;3.10;;
5418;SDS011;2732;52.092;11.556;2023-03-01T14:57:53;4.40;;;3.40;;
5418;SDS011;2732;52.092;11.556;2023-03-01T15:02:55;3.70;;;3.20;;
5418;SDS011;2732;52.092;11.556;2023-03-01T15:08:00;3.30;;;3.00;;
5418;SDS011;2732;52.092;11.556;2023-03-01T15:13:12;4.27;;;2.70;;
5418;SDS011;2732;52.092;11.556;2023-03-01T15:18:28;4.57;;;3.10;;
5418;SDS011;2732;52.092;11.556;2023-03-01T15:23:29;3.10;;;2.40;;
5418;SDS011;2732;52.092;11.556;2023-03-01T15:28:34;5.83;;;4.00;;
5418;SDS011;2732;52.092;11.556;2023-03-01T15:33:40;3.23;;;3.03;;
5418;SDS011;2732;52.092;11.556;2023-03-01T15:43:57;3.07;;;2.57;;
5418;SDS011;2732;52.092;11.556;2023-03-01T15:49:33;3.60;;;2.97;;
5418;SDS011;2732;52.092;11.556;2023-03-01T15:54:39;3.70;;;2.67;;
5418;SDS011;2732;52.092;11.556;2023-03-01T15:59:41;6.53;;;2.57;;
5418;SDS011;2732;52.092;11.556;2023-03-01T16:04:45;3.93;;;2.93;;
5418;SDS011;2732;52.092;11.556;2023-03-01T16:09:48;3.40;;;2.40;;
5418;SDS011;2732;52.092;11.556;2023-03-01T16:14:49;3.53;;;2.27;;
5418;SDS011;2732;52.092;11.556;2023-03-01T16:19:50;2.80;;;2.60;;
5418;SDS011;2732;52.092;11.556;2023-03-01T16:24:51;2.67;;;2.20;;
5418;SDS011;2732;52.092;11.556;2023-03-01T16:29:52;3.07;;;2.60;;
5418;SDS011;2732;52.092;11.556;2023-03-01T16:34:52;2.23;;;2.00;;
5418;SDS011;2732;52.092;11.556;2023-03-01T16:39:53;2.20;;;1.80;;
5418;SDS011;2732;52.092;11.556;2023-03-01T16:44:56;3.80;;;2.60;;
5418;SDS011;2732;52.092;11.556;2023-03-01T16:49:57;2.90;;;2.07;;
5418;SDS011;2732;52.092;11.556;2023-03-01T16:54:58;3.63;;;2.03;;
5418;SDS011;2732;52.092;11.556;2023-03-01T16:59:58;2.87;;;2.63;;
5418;SDS011;2732;52.092;11.556;2023-03-01T17:04:59;7.53;;;3.00;;
5418;SDS011;2732;52.092;11.556;2023-03-01T17:10:00;2.23;;;1.90;;
5418;SDS011;2732;52.092;11.556;2023-03-01T17:15:03;7.23;;;2.00;;
5418;SDS011;2732;52.092;11.556;2023-03-01T17:20:07;2.77;;;2.53;;
5418;SDS011;2732;52.092;11.556;2023-03-01T17:25:09;3.40;;;2.80;;
5418;SDS011;2732;52.092;11.556;2023-03-01T17:30:12;3.67;;;3.00;;
5418;SDS011;2732;52.092;11.556;2023-03-01T17:35:14;11.73;;;5.73;;
5418;SDS011;2732;52.092;11.556;2023-03-01T17:40:14;8.90;;;4.97;;
5418;SDS011;2732;52.092;11.556;2023-03-01T17:45:15;6.07;;;4.00;;
5418;SDS011;2732;52.092;11.556;2023-03-01T17:50:16;6.47;;;3.67;;
5418;SDS011;2732;52.092;11.556;2023-03-01T17:55:17;10.60;;;5.73;;
5418;SDS011;2732;52.092;11.556;2023-03-01T18:00:18;13.17;;;7.13;;
5418;SDS011;2732;52.092;11.556;2023-03-01T18:05:19;16.80;;;8.80;;
5418;SDS011;2732;52.092;11.556;2023-03-01T18:10:20;17.57;;;9.40;;
5418;SDS011;2732;52.092;11.556;2023-03-01T18:15:20;19.13;;;10.30;;
5418;SDS011;2732;52.092;11.556;2023-03-01T18:20:21;12.67;;;6.67;;
5418;SDS011;2732;52.092;11.556;2023-03-01T18:25:22;7.17;;;4.93;;
5418;SDS011;2732;52.092;11.556;2023-03-01T18:30:22;4.77;;;4.23;;
5418;SDS011;2732;52.092;11.556;2023-03-01T18:35:23;6.77;;;3.70;;
5418;SDS011;2732;52.092;11.556;2023-03-01T18:40:27;6.10;;;4.43;;
5418;SDS011;2732;52.092;11.556;2023-03-01T18:45:29;4.77;;;3.30;;
5418;SDS011;2732;52.092;11.556;2023-03-01T18:50:30;6.53;;;4.20;;
5418;SDS011;2732;52.092;11.556;2023-03-01T18:55:34;10.57;;;4.50;;
5418;SDS011;2732;52.092;11.556;2023-03-01T19:00:38;7.93;;;4.67;;
5418;SDS011;2732;52.092;11.556;2023-03-01T19:05:39;9.50;;;5.70;;
5418;SDS011;2732;52.092;11.556;2023-03-01T19:10:40;8.70;;;5.83;;
5418;SDS011;2732;52.092;11.556;2023-03-01T19:15:41;9.20;;;5.97;;
5418;SDS011;2732;52.092;11.556;2023-03-01T19:20:42;9.03;;;6.50;;
5418;SDS011;2732;52.092;11.556;2023-03-01T19:25:43;12.40;;;6.40;;
5418;SDS011;2732;52.092;11.556;2023-03-01T19:30:43;13.77;;;6.60;;
5418;SDS011;2732;52.092;11.556;2023-03-01T19:35:46;13.17;;;6.83;;
5418;SDS011;2732;52.092;11.556;2023-03-01T19:40:48;13.17;;;7.40;;
5418;SDS011;2732;52.092;11.556;2023-03-01T19:45:49;13.70;;;7.30;;
5418;SDS011;2732;52.092;11.556;2023-03-01T19:50:51;12.83;;;7.93;;
5418;SDS011;2732;52.092;11.556;2023-03-01T19:55:56;13.00;;;6.53;;
5418;SDS011;2732;52.092;11.556;2023-03-01T20:00:59;12.93;;;6.43;;
5418;SDS011;2732;52.092;11.556;2023-03-01T20:06:06;10.13;;;5.73;;
5418;SDS011;2732;52.092;11.556;2023-03-01T20:11:11;12.43;;;5.70;;
5418;SDS011;2732;52.092;11.556;2023-03-01T20:16:15;7.53;;;5.40;;
5418;SDS011;2732;52.092;11.556;2023-03-01T20:21:17;8.10;;;5.07;;
5418;SDS011;2732;52.092;11.556;2023-03-01T20:26:20;11.30;;;5.60;;
5418;SDS011;2732;52.092;11.556;2023-03-01T20:31:22;8.87;;;5.97;;
5418;SDS011;2732;52.092;11.556;2023-03-01T20:36:28;8.30;;;4.87;;
5418;SDS011;2732;52.092;11.556;2023-03-01T20:41:29;8.70;;;5.33;;
5418;SDS011;2732;52.092;11.556;2023-03-01T20:46:30;10.60;;;5.20;;
5418;SDS011;2732;52.092;11.556;2023-03-01T20:51:32;10.80;;;5.60;;
5418;SDS011;2732;52.092;11.556;2023-03-01T20:56:32;10.80;;;5.97;;
5418;SDS011;2732;52.092;11.556;2023-03-01T21:01:34;10.07;;;5.53;;
5418;SDS011;2732;52.092;11.556;2023-03-01T21:06:37;9.03;;;4.97;;
5418;SDS011;2732;52.092;11.556;2023-03-01T21:11:38;16.13;;;5.37;;
5418;SDS011;2732;52.092;11.556;2023-03-01T21:16:39;10.60;;;6.10;;
5418;SDS011;2732;52.092;11.556;2023-03-01T21:21:46;17.50;;;6.03;;
5418;SDS011;2732;52.092;11.556;2023-03-01T21:26:47;11.10;;;5.57;;
5418;SDS011;2732;52.092;11.556;2023-03-01T21:31:48;13.30;;;5.90;;
5418;SDS011;2732;52.092;11.556;2023-03-01T21:36:49;10.50;;;5.17;;
5418;SDS011;2732;52.092;11.556;2023-03-01T21:41:50;11.20;;;5.87;;
5418;SDS011;2732;52.092;11.556;2023-03-01T21:46:51;8.17;;;5.17;;
5418;SDS011;2732;52.092;11.556;2023-03-01T21:51:52;11.77;;;5.37;;
5418;SDS011;2732;52.092;11.556;2023-03-01T21:56:53;7.93;;;5.33;;
5418;SDS011;2732;52.092;11.556;2023-03-01T22:01:53;8.80;;;5.83;;
5418;SDS011;2732;52.092;11.556;2023-03-01T22:06:54;9.13;;;5.07;;
5418;SDS011;2732;52.092;11.556;2023-03-01T22:11:55;11.63;;;5.60;;
5418;SDS011;2732;52.092;11.556;2023-03-01T22:17:02;12.00;;;5.70;;
5418;SDS011;2732;52.092;11.556;2023-03-01T22:22:03;6.87;;;5.33;;
5418;SDS011;2732;52.092;11.556;2023-03-01T22:27:07;15.17;;;5.70;;
5418;SDS011;2732;52.092;11.556;2023-03-01T22:32:08;8.70;;;4.97;;
5418;SDS011;2732;52.092;11.556;2023-03-01T22:37:09;9.57;;;4.93;;
5418;SDS011;2732;52.092;11.556;2023-03-01T22:42:09;6.30;;;4.43;;
5418;SDS011;2732;52.092;11.556;2023-03-01T22:47:10;6.93;;;5.23;;
5418;SDS011;2732;52.092;11.556;2023-03-01T22:52:10;7.07;;;4.10;;
5418;SDS011;2732;52.092;11.556;2023-03-01T22:57:11;9.20;;;5.00;;
5418;SDS011;2732;52.092;11.556;2023-03-01T23:02:12;7.90;;;4.93;;
5418;SDS011;2732;52.092;11.556;2023-03-01T23:07:13;7.30;;;4.80;;
5418;SDS011;2732;52.092;11.556;2023-03-01T23:12:13;8.13;;;4.90;;
5418;SDS011;2732;52.092;11.556;2023-03-01T23:17:14;7.73;;;4.93;;
5418;SDS011;2732;52.092;11.556;2023-03-01T23:22:14;8.10;;;5.30;;
5418;SDS011;2732;52.092;11.556;2023-03-01T23:27:16;9.97;;;4.83;;
5418;SDS011;2732;52.092;11.556;2023-03-01T23:32:17;8.00;;;5.10;;
5418;SDS011;2732;52.092;11.556;2023-03-01T23:37:17;9.40;;;5.40;;
5418;SDS011;2732;52.092;11.556;2023-03-01T23:42:18;10.00;;;5.90;;
5418;SDS011;2732;52.092;11.556;2023-03-01T23:47:18;7.23;;;5.67;;
5418;SDS011;2732;52.092;11.556;2023-03-01T23:52:19;11.10;;;6.07;;
5418;SDS011;2732;52.092;11.556;2023-03-01T23:57:19;12.00;;;4.93;;
